ウィーン の空港の天気 - METARとTAF

ウィーン国際空港 ( LOWW / VIE ) - オーストリア ウィーン
飛行場実況気象(Metar)
観測時間01/21 19:20 CET (01/21 18:20 UTC)
風向・風速南南東 1m/s
視程7000m
天気現象
少しの雲 雲底高度 7620m
気温-5℃
湿度79%
気圧1020hPa
METARLOWW 211820Z 16002KT 7000 FEW250 M05/M08 Q1020 R88/19//95 NOSIG
過去の天気等 Google飛行場航空写真 Wunderground天気予報

過去48時間のMETAR

飛行場予報(TAF)
発表時間: 1/21 18:15 CET (1/21 17:15 UTC)
予報対象時間: 21日19時 CET ~ 23日1時 CET
風向・風速不定 1m/s
視程10km以上
なし
22日3時 CET ~ 22日13時 CET に一時的に
視程7000m
全天の8割程度の雲 雲底高度 1370m
22日14時 CET ~ 22日16時 CET に徐々に
風向・風速南東 4m/s
TAF LOWW 211715Z 2118/2224 VRB02KT CAVOK TXM01/2213Z TNM07/2206Z
TEMPO 2202/2212 7000 BKN045
BECMG 2213/2215 13007KT